Decoded Metar for RJGG (NAGOYA/CHUBU in JAPAN) (IATA:NGO) | Meteo·Mobile Aviation Weather
aviador You're here:

RJGG Decoded Metar

NAGOYA/CHUBU in JAPAN
Report Time2019-10-22 13:30:00
UTC Time2019-10-22 14:11:04
Flight Rules vfr VFR
Wind300° at 10 kt
W.Decomp.*RWY 36: 6.0 kt HW 8 kt LCW
Visibility9999 m
Phenomena:N/A
Clouds:Few 030 Hf
Scattered 040 Hf
Expected CloudBase > 2,000 ft AGL from Temp-Dew spread
CeilingNone
Temp21°C (ISA +6)
Dew Point16°C (73% RH)
AAT19.4°C
QNH1012 hPa
Density Alt997 ft
Elevation16 ft
Report Wrong Elevation
Raw Report
METAR RJGG 221330Z 30010KT 9999 FEW030 SCT040 21/16 Q1012 NOSIG=

Extra information for RJGG:More info

Metar Taf Metar & Taf Last 4 Metars F.Rules Stats Wind Profile Meteogram Temp Stats Airport Information Weather charts Add Link Nearby VenuesMetar ALERT Operation Metar Decoded Social comments